Rochester Hills, Michigan
Current Conditions -  °F | °C
As of 1:15 PM on Friday 19 Dec 2014 (Local Time) from KVLL Reporting Station
Scattered Clouds Scattered Clouds  
Wind Chill:   Ceiling: Unl
Heat Index:   Visibility: 10mi
Dew Point: -7°   Wind: 0mph
Humidity: 58%   Direction: NA
Pressure: 30.26"   Gusts: NA
Location:  42.66°N, 83.16°W
Report Text: KVLL 191815Z AUTO 00000KT 10SM SCT025 00/M07 A3026 RMK AO2 T00001074
Loading
Personal Weather Stations






























Interactive Weather Map New forecast layout! Learn more

10-Day Weather Forecast

Advertisements
Track Severe Weather on mobile